Time;durP1;ratioP1;P1;durP2;ratioP2;P2;SDS_P1;SDS_P2;PMS_P1;PMS_P2;Temp;Humidity;BMP_temperature;BMP_pressure;BME280_temperature;BME280_humidity;BME280_pressure;Samples;Min_cycle;Max_cycle;Signal;HPM_P1;HPM_P2
2022/04/05 00:08:05;;;;;;;5.60;2.00;;;;;;;;;;20752890;28;20112;-60
2022/04/05 00:18:07;;;;;;;5.35;2.17;;;;;;;;;;20752755;28;20046;-62
2022/04/05 00:28:10;;;;;;;2.92;1.70;;;;;;;;;;20751768;28;20120;-61
2022/04/05 00:38:14;;;;;;;7.90;1.95;;;;;;;;;;20750575;28;20137;-61
2022/04/05 00:48:22;;;;;;;3.63;1.88;;;;;;;;;;20750604;28;20058;-57
2022/04/05 00:58:27;;;;;;;4.00;2.15;;;;;;;;;;20749796;28;20411;-57
2022/04/05 01:08:29;;;;;;;5.35;2.00;;;;;;;;;;20747976;28;20053;-59
2022/04/05 01:18:33;;;;;;;3.97;1.80;;;;;;;;;;20748684;28;20096;-57
2022/04/05 01:28:34;;;;;;;4.55;2.17;;;;;;;;;;20747815;28;20144;-60
2022/04/05 01:38:38;;;;;;;5.22;2.05;;;;;;;;;;20748298;28;20046;-56
2022/04/05 01:48:43;;;;;;;4.10;2.50;;;;;;;;;;20753123;28;20476;-59
2022/04/05 01:58:49;;;;;;;5.88;2.33;;;;;;;;;;20763138;28;20060;-61
2022/04/05 02:08:53;;;;;;;4.50;2.53;;;;;;;;;;20762970;28;20129;-61
2022/04/05 02:19:03;;;;;;;;;;;;;;;;;;20762372;28;20125;-59
2022/04/05 02:29:09;;;;;;;3.90;2.28;;;;;;;;;;20791569;28;19925;-57
2022/04/05 02:39:21;;;;;;;7.63;2.47;;;;;;;;;;20759149;28;20058;-60
2022/04/05 02:49:24;;;;;;;4.47;2.63;;;;;;;;;;20759868;28;20088;-61
2022/04/05 02:59:28;;;;;;;4.00;2.75;;;;;;;;;;20758073;28;20054;-61
2022/04/05 03:09:30;;;;;;;4.95;2.22;;;;;;;;;;20757858;28;20133;-61
2022/04/05 03:19:39;;;;;;;6.35;3.25;;;;;;;;;;20757027;28;20049;-60
2022/04/05 03:29:48;;;;;;;5.90;2.90;;;;;;;;;;20755258;28;20050;-60
2022/04/05 03:39:58;;;;;;;5.53;3.15;;;;;;;;;;20755663;28;20493;-59
2022/04/05 03:50:00;;;;;;;6.82;2.90;;;;;;;;;;20756324;28;20082;-61
2022/04/05 04:00:02;;;;;;;4.93;2.85;;;;;;;;;;20754247;28;20078;-57
2022/04/05 04:10:05;;;;;;;5.93;3.30;;;;;;;;;;20752580;28;20088;-59
2022/04/05 04:20:08;;;;;;;6.75;3.40;;;;;;;;;;20752531;28;20050;-59
2022/04/05 04:30:17;;;;;;;5.13;3.00;;;;;;;;;;20752758;28;20384;-57
2022/04/05 04:40:20;;;;;;;6.25;3.45;;;;;;;;;;20751096;28;20050;-59
2022/04/05 04:50:22;;;;;;;4.53;2.95;;;;;;;;;;20748996;28;20495;-62
2022/04/05 05:00:25;;;;;;;5.55;3.17;;;;;;;;;;20750899;28;20077;-61
2022/04/05 05:10:27;;;;;;;4.97;2.83;;;;;;;;;;20749278;28;20124;-60
2022/04/05 05:20:29;;;;;;;6.82;3.33;;;;;;;;;;20749256;28;20046;-61
2022/04/05 05:30:32;;;;;;;5.88;3.35;;;;;;;;;;20748111;28;20412;-60
2022/04/05 05:40:35;;;;;;;5.85;3.15;;;;;;;;;;20747472;28;20120;-60
2022/04/05 05:50:37;;;;;;;7.68;3.28;;;;;;;;;;20746492;28;20054;-59
2022/04/05 06:00:40;;;;;;;5.25;3.30;;;;;;;;;;20747364;28;20046;-60
2022/04/05 06:10:42;;;;;;;9.13;3.10;;;;;;;;;;20747299;28;20054;-58
2022/04/05 06:20:44;;;;;;;5.13;3.10;;;;;;;;;;20745980;28;20166;-58
2022/04/05 06:30:47;;;;;;;5.07;3.22;;;;;;;;;;20746373;28;20057;-59
2022/04/05 06:40:49;;;;;;;5.45;3.40;;;;;;;;;;20760039;28;20053;-58
2022/04/05 06:50:51;;;;;;;5.32;3.13;;;;;;;;;;20760001;28;20492;-57
2022/04/05 07:00:54;;;;;;;6.45;3.80;;;;;;;;;;20759703;28;20404;-58
2022/04/05 07:10:56;;;;;;;8.45;4.25;;;;;;;;;;20757352;28;20058;-61
2022/04/05 07:20:58;;;;;;;8.30;3.47;;;;;;;;;;20756316;28;20057;-59
2022/04/05 07:31:00;;;;;;;8.35;3.90;;;;;;;;;;20753610;28;20097;-60
2022/04/05 07:41:03;;;;;;;5.10;3.22;;;;;;;;;;20755641;28;20393;-58
2022/04/05 07:51:04;;;;;;;9.07;4.00;;;;;;;;;;20755356;28;20054;-59
2022/04/05 08:01:06;;;;;;;7.22;3.65;;;;;;;;;;20753570;28;20404;-57
2022/04/05 08:11:08;;;;;;;4.32;3.20;;;;;;;;;;20754085;28;20142;-57
2022/04/05 08:21:09;;;;;;;9.27;3.55;;;;;;;;;;20752011;28;20423;-57
2022/04/05 08:31:11;;;;;;;4.05;2.28;;;;;;;;;;20750124;28;20476;-59
2022/04/05 08:41:13;;;;;;;6.72;3.38;;;;;;;;;;20748121;28;20100;-61
2022/04/05 08:51:15;;;;;;;7.78;3.60;;;;;;;;;;20750205;28;20054;-60
2022/04/05 09:01:17;;;;;;;10.60;3.55;;;;;;;;;;20748891;28;20061;-59
2022/04/05 09:11:20;;;;;;;6.68;3.50;;;;;;;;;;20748707;28;20045;-61
2022/04/05 09:21:22;;;;;;;8.63;4.13;;;9.60;43.00;;;;;;20746989;28;20049;-60
2022/04/05 09:31:23;;;;;;;;;;;9.00;44.10;;;;;;20747603;28;20473;-57
2022/04/05 09:41:24;;;;;;;;;;;9.00;43.80;;;;;;20747455;28;20771;-59
2022/04/05 09:51:25;;;;;;;;;;;9.30;43.00;;;;;;20746795;28;19976;-60
2022/04/05 10:01:36;;;;;;;10.40;5.00;;;9.40;42.90;;;;;;20742190;28;20422;-67
2022/04/05 10:11:40;;;;;;;8.90;3.58;;;10.80;40.40;;;;;;20750731;28;20153;-58
2022/04/05 10:21:42;;;;;;;5.85;2.25;;;10.50;42.10;;;;;;20760149;28;20054;-59
2022/04/05 10:32:03;;;;;;;5.65;3.63;;;10.80;41.60;;;;;;20760099;28;20479;-64
2022/04/05 10:42:08;;;;;;;5.28;2.70;;;11.70;39.40;;;;;;20759920;28;20050;-57
2022/04/05 10:52:11;;;;;;;5.75;3.05;;;10.70;41.10;;;;;;20758607;28;20054;-63
2022/04/05 11:02:40;;;;;;;7.38;3.42;;;10.80;41.00;;;;;;20756703;28;20042;-57
2022/04/05 11:12:43;;;;;;;6.32;3.90;;;11.00;40.20;;;;;;20756032;28;20131;-64
2022/04/05 11:22:45;;;;;;;8.07;3.83;;;;;;;;;;20756086;28;20057;-69
2022/04/05 11:33:12;;;;;;;5.57;3.33;;;12.50;38.00;;;;;;20755289;28;20057;-64
2022/04/05 11:43:21;;;;;;;7.75;4.15;;;11.60;39.70;;;;;;20755217;28;20081;-70
2022/04/05 11:53:28;;;;;;;7.37;3.37;;;11.70;39.50;;;;;;20756131;28;20054;-63
2022/04/05 12:03:30;;;;;;;6.68;2.85;;;;;;;;;;20755676;28;20057;-63
2022/04/05 12:13:35;;;;;;;7.78;4.00;;;14.60;36.00;;;;;;20751039;28;20050;-60
2022/04/05 12:23:41;;;;;;;9.27;3.95;;;13.40;37.30;;;;;;20752675;28;20073;-59
2022/04/05 12:33:53;;;;;;;8.55;4.32;;;12.80;38.30;;;;;;20749999;28;20105;-59
2022/04/05 12:44:04;;;;;;;13.05;7.82;;;12.70;38.60;;;;;;20750095;28;20058;-60
2022/04/05 12:54:05;;;;;;;5.63;3.88;;;12.80;38.30;;;;;;20748848;28;20185;-60
2022/04/05 13:04:06;;;;;;;9.52;4.47;;;13.10;38.10;;;;;;20749866;28;20050;-59
2022/04/05 13:14:12;;;;;;;6.70;3.88;;;12.80;37.80;;;;;;20749249;28;20443;-61
2022/04/05 13:24:14;;;;;;;10.15;3.50;;;13.00;37.20;;;;;;20747865;28;20100;-63
2022/04/05 13:34:19;;;;;;;8.05;3.75;;;12.70;37.30;;;;;;20747375;28;20062;-60
2022/04/05 13:44:23;;;;;;;6.22;3.47;;;;;;;;;;20753628;28;20061;-60
2022/04/05 13:54:26;;;;;;;7.13;4.50;;;;;;;;;;20763339;28;20123;-61
2022/04/05 14:04:27;;;;;;;12.38;4.28;;;14.70;34.00;;;;;;20763697;28;20057;-61
2022/04/05 14:14:29;;;;;;;8.20;4.20;;;;;;;;;;20765784;28;20057;-61
2022/04/05 14:24:31;;;;;;;6.72;4.03;;;;;;;;;;20763970;28;20126;-62
2022/04/05 14:34:33;;;;;;;11.70;4.50;;;;;;;;;;20765608;28;20054;-62
2022/04/05 14:44:35;;;;;;;9.00;4.70;;;;;;;;;;20758964;28;20050;-60
2022/04/05 14:54:37;;;;;;;7.55;3.75;;;;;;;;;;20759934;28;20054;-62
2022/04/05 15:04:38;;;;;;;7.28;4.03;;;;;;;;;;20761532;28;20069;-64
2022/04/05 15:14:40;;;;;;;5.90;3.55;;;;;;;;;;20758595;28;20057;-60
2022/04/05 15:24:42;;;;;;;11.45;3.28;;;;;;;;;;20756638;28;20053;-64
2022/04/05 15:34:44;;;;;;;7.20;2.78;;;;;;;;;;20758194;28;20385;-60
2022/04/05 15:44:45;;;;;;;8.68;3.00;;;;;;;;;;20755200;28;20057;-60
2022/04/05 15:54:50;;;;;;;5.95;2.80;;;;;;;;;;20754325;28;20060;-60
2022/04/05 16:04:53;;;;;;;5.28;2.67;;;;;;;;;;20753289;28;20057;-61
2022/04/05 16:14:55;;;;;;;9.07;3.08;;;;;;;;;;20754288;28;20046;-63
2022/04/05 16:24:56;;;;;;;8.15;2.78;;;;;;;;;;20753169;28;20061;-62
2022/04/05 16:34:59;;;;;;;6.30;2.90;;;;;;;;;;20750768;28;20450;-60
2022/04/05 16:45:00;;;;;;;6.18;3.30;;;;;;;;;;20750672;28;20057;-62
2022/04/05 16:55:03;;;;;;;7.45;3.30;;;;;;;;;;20749405;28;20053;-60
2022/04/05 17:05:05;;;;;;;8.75;3.85;;;;;;;;;;20748949;28;20056;-60
2022/04/05 17:15:13;;;;;;;5.50;3.20;;;;;;;;;;20747926;28;20050;-65
2022/04/05 17:25:14;;;;;;;7.75;4.03;;;;;;;;;;20746237;28;20488;-60
2022/04/05 17:35:16;;;;;;;6.60;3.20;;;;;;;;;;20746719;28;20389;-71
2022/04/05 17:45:18;;;;;;;6.20;2.03;;;;;;;;;;20743790;28;20132;-66
2022/04/05 17:55:22;;;;;;;6.30;3.17;;;;;;;;;;20744760;28;20096;-67
2022/04/05 18:05:28;;;;;;;5.05;2.72;;;13.00;48.20;;;;;;20745349;28;20148;-58
2022/04/05 18:15:30;;;;;;;7.10;3.08;;;;;;;;;;20743628;28;20046;-69
2022/04/05 18:25:32;;;;;;;5.75;3.92;;;;;;;;;;20740488;28;20073;-66
2022/04/05 18:35:33;;;;;;;7.45;3.13;;;11.90;51.00;;;;;;20754210;28;20515;-61
2022/04/05 18:45:36;;;;;;;5.65;2.80;;;;;;;;;;20757167;28;20081;-62
2022/04/05 18:55:37;;;;;;;10.68;3.30;;;12.10;52.70;;;;;;20755490;28;20064;-61
2022/04/05 19:05:38;;;;;;;15.68;4.57;;;11.00;54.70;;;;;;20756322;28;20049;-61
2022/04/05 19:15:40;;;;;;;12.50;3.58;;;10.90;55.30;;;;;;20757162;28;20049;-62
2022/04/05 19:25:42;;;;;;;8.77;4.63;;;11.40;54.60;;;;;;20755678;28;20192;-61
2022/04/05 19:35:44;;;;;;;8.40;3.33;;;;;;;;;;20755453;28;20081;-62
2022/04/05 19:45:47;;;;;;;6.93;3.63;;;;;;;;;;20754214;28;20145;-62
2022/04/05 19:55:49;;;;;;;5.70;3.03;;;;;;;;;;20754639;28;20127;-62
2022/04/05 20:05:51;;;;;;;9.23;3.15;;;;;;;;;;20754006;28;20108;-60
2022/04/05 20:15:53;;;;;;;6.88;3.00;;;;;;;;;;20751155;28;20088;-61
2022/04/05 20:25:55;;;;;;;9.30;3.00;;;;;;;;;;20752165;28;20049;-62
2022/04/05 20:35:58;;;;;;;7.75;2.65;;;10.70;56.90;;;;;;20751255;28;20042;-62
2022/04/05 20:46:01;;;;;;;14.48;6.25;;;10.60;56.70;;;;;;20751091;28;20519;-62
2022/04/05 20:56:02;;;;;;;5.80;2.50;;;;;;;;;;20749096;28;20481;-60
2022/04/05 21:06:05;;;;;;;7.75;3.55;;;;;;;;;;20749307;28;20053;-62
2022/04/05 21:16:09;;;;;;;4.68;2.47;;;;;;;;;;20749846;28;20552;-61
2022/04/05 21:26:12;;;;;;;6.47;2.60;;;;;;;;;;20748936;28;20139;-60
2022/04/05 21:36:15;;;;;;;4.30;2.67;;;;;;;;;;20747419;28;20404;-60
2022/04/05 21:46:17;;;;;;;7.32;3.25;;;;;;;;;;20747027;28;20581;-60
2022/04/05 21:56:20;;;;;;;6.55;2.40;;;;;;;;;;20746994;28;20053;-60
2022/04/05 22:06:23;;;;;;;4.07;2.20;;;;;;;;;;20753124;28;20058;-60
2022/04/05 22:16:26;;;;;;;5.22;2.17;;;;;;;;;;20761966;28;20085;-60
2022/04/05 22:26:29;;;;;;;10.88;3.08;;;;;;;;;;20761536;28;20081;-60
2022/04/05 22:36:31;;;;;;;5.05;2.65;;;;;;;;;;20760513;28;20085;-57
2022/04/05 22:46:35;;;;;;;4.47;2.60;;;;;;;;;;20759517;28;20072;-61
2022/04/05 22:56:37;;;;;;;6.60;3.25;;;;;;;;;;20759164;28;20619;-60
2022/04/05 23:06:39;;;;;;;4.68;3.30;;;;;;;;;;20757743;28;20050;-64
2022/04/05 23:16:41;;;;;;;6.25;3.38;;;;;;;;;;20755707;28;20132;-58
2022/04/05 23:26:43;;;;;;;6.60;3.15;;;;;;;;;;20757400;28;20050;-61
2022/04/05 23:36:45;;;;;;;5.75;3.60;;;;;;;;;;20756291;28;20085;-59
2022/04/05 23:46:47;;;;;;;8.43;4.38;;;;;;;;;;20755468;28;20108;-60
2022/04/05 23:56:49;;;;;;;7.75;3.83;;;;;;;;;;20754238;28;20531;-59
